sensor_id;sensor_type;location;lat;lon;timestamp;pressure;altitude;pressure_sealevel;temperature;humidity
42511;BME280;28141;51.120;17.114;2023-05-02T00:00:36;101384.56;;;27.79;27.91
42511;BME280;28141;51.120;17.114;2023-05-02T00:03:50;101384.44;;;27.74;28.19
42511;BME280;28141;51.120;17.114;2023-05-02T00:07:30;101388.79;;;27.70;27.85
42511;BME280;28141;51.120;17.114;2023-05-02T00:10:44;101380.95;;;27.67;28.01
42511;BME280;28141;51.120;17.114;2023-05-02T00:13:59;101384.45;;;27.63;28.23
42511;BME280;28141;51.120;17.114;2023-05-02T00:17:17;101380.22;;;27.60;27.79
42511;BME280;28141;51.120;17.114;2023-05-02T00:20:58;101376.00;;;27.57;28.06
42511;BME280;28141;51.120;17.114;2023-05-02T00:24:11;101374.75;;;27.53;27.53
42511;BME280;28141;51.120;17.114;2023-05-02T00:27:25;101378.87;;;27.51;27.92
42511;BME280;28141;51.120;17.114;2023-05-02T00:30:45;101366.27;;;27.48;28.32
42511;BME280;28141;51.120;17.114;2023-05-02T00:34:29;101360.84;;;27.42;28.24
42511;BME280;28141;51.120;17.114;2023-05-02T00:37:43;101364.24;;;27.44;28.50
42511;BME280;28141;51.120;17.114;2023-05-02T00:40:58;101353.45;;;27.47;28.03
42511;BME280;28141;51.120;17.114;2023-05-02T00:44:11;101356.13;;;27.42;28.24
42511;BME280;28141;51.120;17.114;2023-05-02T00:47:54;101363.87;;;27.40;28.28
42511;BME280;28141;51.120;17.114;2023-05-02T00:51:09;101354.91;;;27.38;28.38
42511;BME280;28141;51.120;17.114;2023-05-02T00:54:25;101355.77;;;27.39;28.39
42511;BME280;28141;51.120;17.114;2023-05-02T00:57:39;101350.71;;;27.36;28.14
42511;BME280;28141;51.120;17.114;2023-05-02T01:08:24;101354.20;;;27.19;28.49
42511;BME280;28141;51.120;17.114;2023-05-02T01:12:18;101354.44;;;27.18;28.61
42511;BME280;28141;51.120;17.114;2023-05-02T01:15:37;101352.40;;;27.13;28.59
42511;BME280;28141;51.120;17.114;2023-05-02T01:18:51;101354.44;;;27.18;28.56
42511;BME280;28141;51.120;17.114;2023-05-02T01:22:33;101358.81;;;27.14;28.66
42511;BME280;28141;51.120;17.114;2023-05-02T01:29:19;101346.93;;;27.07;28.74
42511;BME280;28141;51.120;17.114;2023-05-02T01:33:03;101352.50;;;27.07;28.78
42511;BME280;28141;51.120;17.114;2023-05-02T01:36:19;101354.20;;;27.08;28.63
42511;BME280;28141;51.120;17.114;2023-05-02T01:39:35;101360.23;;;27.05;28.96
42511;BME280;28141;51.120;17.114;2023-05-02T01:42:52;101361.59;;;27.02;28.76
42511;BME280;28141;51.120;17.114;2023-05-02T01:46:35;101364.83;;;26.99;28.88
42511;BME280;28141;51.120;17.114;2023-05-02T01:49:51;101365.54;;;26.95;28.80
42511;BME280;28141;51.120;17.114;2023-05-02T01:53:07;101365.54;;;26.95;28.59
42511;BME280;28141;51.120;17.114;2023-05-02T01:56:26;101366.39;;;26.95;28.75
42511;BME280;28141;51.120;17.114;2023-05-02T02:00:09;101373.41;;;26.98;28.96
42511;BME280;28141;51.120;17.114;2023-05-02T02:03:24;101358.28;;;26.94;29.05
42511;BME280;28141;51.120;17.114;2023-05-02T02:06:43;101371.10;;;26.95;28.94
42511;BME280;28141;51.120;17.114;2023-05-02T02:09:59;101364.45;;;26.96;29.06
42511;BME280;28141;51.120;17.114;2023-05-02T02:13:44;101364.31;;;26.90;29.05
42511;BME280;28141;51.120;17.114;2023-05-02T02:17:07;101371.80;;;26.90;29.03
42511;BME280;28141;51.120;17.114;2023-05-02T02:20:24;101381.46;;;26.87;29.01
42511;BME280;28141;51.120;17.114;2023-05-02T02:24:06;101380.62;;;26.87;29.16
42511;BME280;28141;51.120;17.114;2023-05-02T02:27:20;101375.52;;;26.84;28.37
42511;BME280;28141;51.120;17.114;2023-05-02T02:30:34;101384.86;;;26.89;29.07
42511;BME280;28141;51.120;17.114;2023-05-02T02:33:48;101390.04;;;26.86;29.11
42511;BME280;28141;51.120;17.114;2023-05-02T02:37:36;101401.27;;;26.79;29.25
42511;BME280;28141;51.120;17.114;2023-05-02T02:41:10;101401.62;;;26.71;29.41
42511;BME280;28141;51.120;17.114;2023-05-02T02:44:31;101405.48;;;26.70;29.30
42511;BME280;28141;51.120;17.114;2023-05-02T02:48:29;101414.90;;;26.69;29.45
42511;BME280;28141;51.120;17.114;2023-05-02T02:51:49;101414.75;;;26.64;29.52
42511;BME280;28141;51.120;17.114;2023-05-02T02:55:11;101418.77;;;26.68;29.30
42511;BME280;28141;51.120;17.114;2023-05-02T02:58:59;101422.74;;;26.72;29.46
42511;BME280;28141;51.120;17.114;2023-05-02T03:02:17;101429.50;;;26.65;29.48
42511;BME280;28141;51.120;17.114;2023-05-02T03:05:32;101424.45;;;26.73;29.36
42511;BME280;28141;51.120;17.114;2023-05-02T03:09:15;101426.63;;;26.71;29.46
42511;BME280;28141;51.120;17.114;2023-05-02T03:12:32;101426.02;;;26.69;29.46
42511;BME280;28141;51.120;17.114;2023-05-02T03:16:02;101432.66;;;26.68;29.58
42511;BME280;28141;51.120;17.114;2023-05-02T03:19:38;101443.39;;;26.65;29.56
42511;BME280;28141;51.120;17.114;2023-05-02T03:22:53;101439.75;;;26.64;29.45
42511;BME280;28141;51.120;17.114;2023-05-02T03:26:06;101442.70;;;26.69;29.74
42511;BME280;28141;51.120;17.114;2023-05-02T03:29:20;101436.52;;;26.67;29.45
42511;BME280;28141;51.120;17.114;2023-05-02T03:33:01;101439.75;;;26.64;29.60
42511;BME280;28141;51.120;17.114;2023-05-02T03:36:19;101443.16;;;26.66;29.52
42511;BME280;28141;51.120;17.114;2023-05-02T03:39:34;101454.96;;;26.62;29.91
42511;BME280;28141;51.120;17.114;2023-05-02T03:42:48;101455.23;;;26.60;29.93
42511;BME280;28141;51.120;17.114;2023-05-02T03:46:28;101468.02;;;26.61;29.73
42511;BME280;28141;51.120;17.114;2023-05-02T03:49:42;101475.15;;;26.57;29.96
42511;BME280;28141;51.120;17.114;2023-05-02T03:52:56;101478.54;;;26.59;29.83
42511;BME280;28141;51.120;17.114;2023-05-02T03:56:11;101470.56;;;26.63;29.77
42511;BME280;28141;51.120;17.114;2023-05-02T03:59:51;101480.59;;;26.64;29.80
42511;BME280;28141;51.120;17.114;2023-05-02T04:03:06;101488.31;;;26.62;29.81
42511;BME280;28141;51.120;17.114;2023-05-02T04:06:21;101491.48;;;26.65;29.80
42511;BME280;28141;51.120;17.114;2023-05-02T04:09:34;101490.50;;;26.60;29.90
42511;BME280;28141;51.120;17.114;2023-05-02T04:13:14;101498.58;;;26.61;29.91
42511;BME280;28141;51.120;17.114;2023-05-02T04:16:28;101512.73;;;26.60;29.97
42511;BME280;28141;51.120;17.114;2023-05-02T04:19:42;101503.55;;;26.59;29.94
42511;BME280;28141;51.120;17.114;2023-05-02T04:22:56;101513.71;;;26.65;30.28
42511;BME280;28141;51.120;17.114;2023-05-02T04:26:37;101528.46;;;26.66;30.02
42511;BME280;28141;51.120;17.114;2023-05-02T04:29:51;101529.77;;;26.63;29.73
42511;BME280;28141;51.120;17.114;2023-05-02T04:33:06;101541.67;;;26.70;29.90
42511;BME280;28141;51.120;17.114;2023-05-02T04:36:19;101545.52;;;26.69;30.05
42511;BME280;28141;51.120;17.114;2023-05-02T04:40:00;101551.45;;;26.73;30.03
42511;BME280;28141;51.120;17.114;2023-05-02T04:43:13;101562.96;;;26.76;30.16
42511;BME280;28141;51.120;17.114;2023-05-02T04:46:28;101566.98;;;26.80;29.95
42511;BME280;28141;51.120;17.114;2023-05-02T04:49:42;101572.04;;;26.83;29.94
42511;BME280;28141;51.120;17.114;2023-05-02T04:53:22;101572.90;;;26.84;29.98
42511;BME280;28141;51.120;17.114;2023-05-02T04:56:36;101569.77;;;26.80;30.21
42511;BME280;28141;51.120;17.114;2023-05-02T04:59:50;101579.80;;;26.81;30.14
42511;BME280;28141;51.120;17.114;2023-05-02T05:03:04;101571.20;;;26.83;30.24
42511;BME280;28141;51.120;17.114;2023-05-02T05:06:47;101580.77;;;26.87;30.10
42511;BME280;28141;51.120;17.114;2023-05-02T05:10:01;101577.31;;;26.92;29.83
42511;BME280;28141;51.120;17.114;2023-05-02T05:13:16;101573.22;;;26.94;30.05
42511;BME280;28141;51.120;17.114;2023-05-02T05:16:30;101571.68;;;26.98;30.03
42511;BME280;28141;51.120;17.114;2023-05-02T05:20:10;101585.12;;;27.01;29.89
42511;BME280;28141;51.120;17.114;2023-05-02T05:23:24;101593.36;;;27.08;30.03
42511;BME280;28141;51.120;17.114;2023-05-02T05:26:39;101592.89;;;27.11;29.51
42511;BME280;28141;51.120;17.114;2023-05-02T05:29:53;101606.93;;;27.16;29.78
42511;BME280;28141;51.120;17.114;2023-05-02T05:33:34;101607.55;;;27.18;29.75
42511;BME280;28141;51.120;17.114;2023-05-02T05:36:47;101602.14;;;27.23;29.71
42511;BME280;28141;51.120;17.114;2023-05-02T05:40:02;101606.39;;;27.25;29.98
42511;BME280;28141;51.120;17.114;2023-05-02T05:43:15;101612.08;;;27.31;29.84
42511;BME280;28141;51.120;17.114;2023-05-02T05:46:56;101620.43;;;27.31;29.63
42511;BME280;28141;51.120;17.114;2023-05-02T05:50:10;101618.88;;;27.35;29.55
42511;BME280;28141;51.120;17.114;2023-05-02T05:53:24;101627.58;;;27.38;29.44
42511;BME280;28141;51.120;17.114;2023-05-02T05:56:38;101624.95;;;27.43;29.42
42511;BME280;28141;51.120;17.114;2023-05-02T06:00:18;101630.79;;;27.53;29.44
42511;BME280;28141;51.120;17.114;2023-05-02T06:03:33;101631.87;;;27.52;29.57
42511;BME280;28141;51.120;17.114;2023-05-02T06:06:47;101627.86;;;27.48;29.89
42511;BME280;28141;51.120;17.114;2023-05-02T06:10:01;101642.07;;;27.58;29.27
42511;BME280;28141;51.120;17.114;2023-05-02T06:13:41;101647.79;;;27.64;29.37
42511;BME280;28141;51.120;17.114;2023-05-02T06:16:58;101649.61;;;27.70;29.57
42511;BME280;28141;51.120;17.114;2023-05-02T06:20:12;101649.29;;;27.78;28.61
42511;BME280;28141;51.120;17.114;2023-05-02T06:23:26;101663.33;;;27.83;28.86
42511;BME280;28141;51.120;17.114;2023-05-02T06:27:06;101663.47;;;27.88;29.18
42511;BME280;28141;51.120;17.114;2023-05-02T06:30:20;101667.23;;;27.93;29.35
42511;BME280;28141;51.120;17.114;2023-05-02T06:33:34;101666.52;;;27.98;29.29
42511;BME280;28141;51.120;17.114;2023-05-02T06:36:53;101668.95;;;28.06;29.51
42511;BME280;28141;51.120;17.114;2023-05-02T06:40:35;101678.30;;;28.12;28.98
42511;BME280;28141;51.120;17.114;2023-05-02T06:43:54;101684.21;;;28.15;29.03
42511;BME280;28141;51.120;17.114;2023-05-02T06:47:09;101679.05;;;28.19;29.21
42511;BME280;28141;51.120;17.114;2023-05-02T06:50:24;101683.65;;;28.25;29.15
42511;BME280;28141;51.120;17.114;2023-05-02T06:54:06;101693.84;;;28.31;28.82
42511;BME280;28141;51.120;17.114;2023-05-02T06:57:21;101696.27;;;28.39;28.98
42511;BME280;28141;51.120;17.114;2023-05-02T07:00:35;101699.54;;;28.48;28.14
42511;BME280;28141;51.120;17.114;2023-05-02T07:03:49;101705.87;;;28.55;28.81
42511;BME280;28141;51.120;17.114;2023-05-02T07:07:30;101707.19;;;28.64;28.54
42511;BME280;28141;51.120;17.114;2023-05-02T07:10:45;101703.41;;;28.70;28.58
42511;BME280;28141;51.120;17.114;2023-05-02T07:13:59;101711.43;;;28.78;28.77
42511;BME280;28141;51.120;17.114;2023-05-02T07:17:13;101713.87;;;28.86;28.38
42511;BME280;28141;51.120;17.114;2023-05-02T07:20:54;101719.68;;;28.96;28.38
42511;BME280;28141;51.120;17.114;2023-05-02T07:24:08;101716.02;;;29.08;28.54
42511;BME280;28141;51.120;17.114;2023-05-02T07:27:23;101705.68;;;29.20;27.92
42511;BME280;28141;51.120;17.114;2023-05-02T07:30:36;101710.87;;;29.28;27.76
42511;BME280;28141;51.120;17.114;2023-05-02T07:34:17;101725.06;;;29.38;27.95
42511;BME280;28141;51.120;17.114;2023-05-02T07:37:34;101724.66;;;29.46;27.40
42511;BME280;28141;51.120;17.114;2023-05-02T07:40:49;101731.90;;;29.59;26.89
42511;BME280;28141;51.120;17.114;2023-05-02T07:44:03;101729.06;;;29.70;27.84
42511;BME280;28141;51.120;17.114;2023-05-02T07:47:44;101730.34;;;29.80;27.55
42511;BME280;28141;51.120;17.114;2023-05-02T07:51:06;101736.37;;;29.88;27.68
42511;BME280;28141;51.120;17.114;2023-05-02T07:54:21;101742.70;;;29.95;27.14
42511;BME280;28141;51.120;17.114;2023-05-02T07:57:35;101749.32;;;30.06;27.51
42511;BME280;28141;51.120;17.114;2023-05-02T08:01:15;101749.26;;;30.18;27.34
42511;BME280;28141;51.120;17.114;2023-05-02T08:04:29;101750.53;;;30.27;26.97
42511;BME280;28141;51.120;17.114;2023-05-02T08:07:43;101751.30;;;30.39;27.12
42511;BME280;28141;51.120;17.114;2023-05-02T08:10:57;101756.21;;;30.48;26.78
42511;BME280;28141;51.120;17.114;2023-05-02T08:14:37;101762.59;;;30.61;26.90
42511;BME280;28141;51.120;17.114;2023-05-02T08:17:51;101758.26;;;30.70;26.70
42511;BME280;28141;51.120;17.114;2023-05-02T08:21:05;101764.02;;;30.80;27.05
42511;BME280;28141;51.120;17.114;2023-05-02T08:24:19;101756.27;;;30.87;26.36
42511;BME280;28141;51.120;17.114;2023-05-02T08:28:00;101765.91;;;30.96;27.08
42511;BME280;28141;51.120;17.114;2023-05-02T08:31:14;101762.66;;;31.04;27.15
42511;BME280;28141;51.120;17.114;2023-05-02T08:34:28;101770.68;;;31.12;27.11
42511;BME280;28141;51.120;17.114;2023-05-02T08:37:42;101757.33;;;31.19;27.05
42511;BME280;28141;51.120;17.114;2023-05-02T08:40:56;101766.95;;;31.29;26.86
42511;BME280;28141;51.120;17.114;2023-05-02T08:44:11;101771.54;;;31.35;26.75
42511;BME280;28141;51.120;17.114;2023-05-02T08:47:51;101772.19;;;31.42;26.54
42511;BME280;28141;51.120;17.114;2023-05-02T08:51:12;101776.72;;;31.48;26.22
42511;BME280;28141;51.120;17.114;2023-05-02T08:54:26;101777.66;;;31.53;26.04
42511;BME280;28141;51.120;17.114;2023-05-02T08:57:42;101779.09;;;31.56;26.48
42511;BME280;28141;51.120;17.114;2023-05-02T09:01:23;101782.48;;;31.58;26.03
42511;BME280;28141;51.120;17.114;2023-05-02T09:04:40;101792.29;;;31.61;25.69
42511;BME280;28141;51.120;17.114;2023-05-02T09:07:55;101792.66;;;31.64;26.02
42511;BME280;28141;51.120;17.114;2023-05-02T09:11:10;101801.06;;;31.64;25.87
42511;BME280;28141;51.120;17.114;2023-05-02T09:18:19;101813.71;;;31.67;26.08
42511;BME280;28141;51.120;17.114;2023-05-02T09:21:39;101809.84;;;31.73;25.81
42511;BME280;28141;51.120;17.114;2023-05-02T09:25:19;101819.69;;;31.75;25.83
42511;BME280;28141;51.120;17.114;2023-05-02T09:28:40;101817.78;;;31.81;25.79
42511;BME280;28141;51.120;17.114;2023-05-02T09:31:54;101824.31;;;31.86;25.66
42511;BME280;28141;51.120;17.114;2023-05-02T09:35:09;101824.64;;;31.90;25.54
42511;BME280;28141;51.120;17.114;2023-05-02T09:38:49;101833.60;;;31.92;25.54
42511;BME280;28141;51.120;17.114;2023-05-02T09:42:03;101834.45;;;31.92;25.51
42511;BME280;28141;51.120;17.114;2023-05-02T09:45:22;101833.95;;;31.96;25.79
42511;BME280;28141;51.120;17.114;2023-05-02T09:52:28;101845.66;;;31.92;25.46
42511;BME280;28141;51.120;17.114;2023-05-02T09:55:42;101841.57;;;32.00;25.60
42511;BME280;28141;51.120;17.114;2023-05-02T10:02:24;101848.59;;;32.03;25.50
42511;BME280;28141;51.120;17.114;2023-05-02T10:06:04;101847.59;;;32.14;25.38
42511;BME280;28141;51.120;17.114;2023-05-02T10:09:22;101853.03;;;32.20;24.90
42511;BME280;28141;51.120;17.114;2023-05-02T10:12:37;101851.97;;;32.26;25.55
42511;BME280;28141;51.120;17.114;2023-05-02T10:15:58;101854.84;;;32.32;25.02
42511;BME280;28141;51.120;17.114;2023-05-02T10:23:07;101848.05;;;32.27;25.21
42511;BME280;28141;51.120;17.114;2023-05-02T10:26:21;101854.61;;;32.38;25.33
42511;BME280;28141;51.120;17.114;2023-05-02T10:29:41;101862.54;;;32.46;24.75
42511;BME280;28141;51.120;17.114;2023-05-02T10:32:58;101861.52;;;32.57;25.10
42511;BME280;28141;51.120;17.114;2023-05-02T10:36:38;101858.72;;;32.57;24.87
42511;BME280;28141;51.120;17.114;2023-05-02T10:39:51;101854.02;;;32.63;24.94
42511;BME280;28141;51.120;17.114;2023-05-02T10:43:06;101849.84;;;32.66;24.64
42511;BME280;28141;51.120;17.114;2023-05-02T10:46:32;101863.57;;;32.67;24.58
42511;BME280;28141;51.120;17.114;2023-05-02T10:50:13;101868.66;;;32.70;24.75
42511;BME280;28141;51.120;17.114;2023-05-02T10:53:34;101862.29;;;32.75;25.09
42511;BME280;28141;51.120;17.114;2023-05-02T11:00:44;101869.04;;;32.79;24.61
42511;BME280;28141;51.120;17.114;2023-05-02T11:03:59;101865.44;;;32.83;24.72
42511;BME280;28141;51.120;17.114;2023-05-02T11:07:17;101877.02;;;32.92;23.94
42511;BME280;28141;51.120;17.114;2023-05-02T11:10:31;101876.48;;;32.95;24.42
42511;BME280;28141;51.120;17.114;2023-05-02T11:24:55;101889.34;;;32.91;24.45
42511;BME280;28141;51.120;17.114;2023-05-02T11:35:26;101893.67;;;33.04;24.28
42511;BME280;28141;51.120;17.114;2023-05-02T11:38:43;101890.08;;;33.08;24.72
42511;BME280;28141;51.120;17.114;2023-05-02T11:41:57;101896.23;;;33.10;24.23
42511;BME280;28141;51.120;17.114;2023-05-02T11:45:11;101901.33;;;33.13;24.63
42511;BME280;28141;51.120;17.114;2023-05-02T11:48:51;101906.41;;;33.16;24.09
42511;BME280;28141;51.120;17.114;2023-05-02T11:52:05;101906.14;;;33.18;24.29
42511;BME280;28141;51.120;17.114;2023-05-02T11:55:19;101899.47;;;33.24;23.98
42511;BME280;28141;51.120;17.114;2023-05-02T11:58:33;101899.20;;;33.25;24.17
42511;BME280;28141;51.120;17.114;2023-05-02T12:02:13;101907.68;;;33.30;24.07
42511;BME280;28141;51.120;17.114;2023-05-02T12:05:28;101902.08;;;33.35;24.41
42511;BME280;28141;51.120;17.114;2023-05-02T12:08:43;101902.66;;;33.38;24.13
42511;BME280;28141;51.120;17.114;2023-05-02T12:11:58;101897.05;;;33.43;24.20
42511;BME280;28141;51.120;17.114;2023-05-02T12:15:40;101894.55;;;33.46;23.88
42511;BME280;28141;51.120;17.114;2023-05-02T12:18:55;101900.77;;;33.53;24.04
42511;BME280;28141;51.120;17.114;2023-05-02T12:22:13;101898.27;;;33.57;23.88
42511;BME280;28141;51.120;17.114;2023-05-02T12:25:28;101898.59;;;33.60;24.17
42511;BME280;28141;51.120;17.114;2023-05-02T12:29:08;101905.06;;;33.66;23.81
42511;BME280;28141;51.120;17.114;2023-05-02T12:32:32;101904.79;;;33.67;23.52
42511;BME280;28141;51.120;17.114;2023-05-02T12:35:46;101914.60;;;33.60;23.45
42511;BME280;28141;51.120;17.114;2023-05-02T12:39:00;101917.40;;;33.60;23.63
42511;BME280;28141;51.120;17.114;2023-05-02T12:46:10;101942.59;;;33.45;24.03
42511;BME280;28141;51.120;17.114;2023-05-02T12:49:24;101958.91;;;33.48;24.41
42511;BME280;28141;51.120;17.114;2023-05-02T12:53:08;101972.88;;;33.38;24.13
42511;BME280;28141;51.120;17.114;2023-05-02T12:56:22;101975.61;;;33.27;24.71
42511;BME280;28141;51.120;17.114;2023-05-02T12:59:39;101987.32;;;33.19;24.89
42511;BME280;28141;51.120;17.114;2023-05-02T13:02:53;101982.45;;;33.10;24.65
42511;BME280;28141;51.120;17.114;2023-05-02T13:06:34;101971.39;;;32.98;25.40
42511;BME280;28141;51.120;17.114;2023-05-02T13:09:50;101975.48;;;32.85;25.55
42511;BME280;28141;51.120;17.114;2023-05-02T13:13:04;101973.95;;;32.73;25.77
42511;BME280;28141;51.120;17.114;2023-05-02T13:16:19;101971.00;;;32.62;25.22
42511;BME280;28141;51.120;17.114;2023-05-02T13:20:00;101970.83;;;32.47;25.80
42511;BME280;28141;51.120;17.114;2023-05-02T13:23:14;101971.04;;;32.41;26.21
42511;BME280;28141;51.120;17.114;2023-05-02T13:26:29;101959.88;;;32.24;25.57
42511;BME280;28141;51.120;17.114;2023-05-02T13:29:46;101966.34;;;32.24;25.57
42511;BME280;28141;51.120;17.114;2023-05-02T13:33:27;101960.58;;;32.14;25.55
42511;BME280;28141;51.120;17.114;2023-05-02T13:36:41;101966.73;;;32.11;25.97
42511;BME280;28141;51.120;17.114;2023-05-02T13:39:58;101973.19;;;32.12;25.57
42511;BME280;28141;51.120;17.114;2023-05-02T13:43:12;101970.94;;;32.14;26.28
42511;BME280;28141;51.120;17.114;2023-05-02T13:46:53;101973.85;;;32.19;25.78
42511;BME280;28141;51.120;17.114;2023-05-02T13:50:07;101969.73;;;32.26;25.38
42511;BME280;28141;51.120;17.114;2023-05-02T13:53:21;101965.95;;;32.38;25.80
42511;BME280;28141;51.120;17.114;2023-05-02T13:56:35;101970.23;;;32.45;25.38
42511;BME280;28141;51.120;17.114;2023-05-02T14:00:18;101964.22;;;32.58;25.45
42511;BME280;28141;51.120;17.114;2023-05-02T14:03:33;101960.77;;;32.73;24.96
42511;BME280;28141;51.120;17.114;2023-05-02T14:06:47;101955.51;;;32.82;25.12
42511;BME280;28141;51.120;17.114;2023-05-02T14:10:01;101959.00;;;32.94;25.44
42511;BME280;28141;51.120;17.114;2023-05-02T14:13:41;101963.33;;;33.07;25.12
42511;BME280;28141;51.120;17.114;2023-05-02T14:16:55;101952.50;;;33.20;25.17
42511;BME280;28141;51.120;17.114;2023-05-02T14:20:10;101957.68;;;33.33;24.97
42511;BME280;28141;51.120;17.114;2023-05-02T14:23:27;101960.07;;;33.52;24.50
42511;BME280;28141;51.120;17.114;2023-05-02T14:27:07;101959.88;;;33.68;24.55
42511;BME280;28141;51.120;17.114;2023-05-02T14:30:30;101956.90;;;33.80;24.37
42511;BME280;28141;51.120;17.114;2023-05-02T14:33:44;101962.61;;;33.95;24.14
42511;BME280;28141;51.120;17.114;2023-05-02T14:36:58;101963.19;;;34.02;24.15
42511;BME280;28141;51.120;17.114;2023-05-02T14:40:38;101960.70;;;34.11;24.03
42511;BME280;28141;51.120;17.114;2023-05-02T14:43:53;101965.79;;;34.19;23.82
42511;BME280;28141;51.120;17.114;2023-05-02T14:47:07;101966.42;;;34.26;23.42
42511;BME280;28141;51.120;17.114;2023-05-02T14:50:21;101964.19;;;34.28;23.73
42511;BME280;28141;51.120;17.114;2023-05-02T14:54:01;101972.63;;;34.33;23.81
42511;BME280;28141;51.120;17.114;2023-05-02T14:57:16;101971.78;;;34.33;23.88
42511;BME280;28141;51.120;17.114;2023-05-02T15:00:32;101976.02;;;34.35;23.41
42511;BME280;28141;51.120;17.114;2023-05-02T15:03:49;101975.48;;;34.38;23.65
42511;BME280;28141;51.120;17.114;2023-05-02T15:07:30;101976.33;;;34.39;23.66
42511;BME280;28141;51.120;17.114;2023-05-02T15:10:45;101981.65;;;34.35;23.36
42511;BME280;28141;51.120;17.114;2023-05-02T15:13:59;101985.84;;;34.28;23.96
42511;BME280;28141;51.120;17.114;2023-05-02T15:17:13;101991.41;;;34.23;23.96
42511;BME280;28141;51.120;17.114;2023-05-02T15:20:54;101999.80;;;34.13;23.77
42511;BME280;28141;51.120;17.114;2023-05-02T15:24:08;101999.22;;;34.05;23.34
42511;BME280;28141;51.120;17.114;2023-05-02T15:27:23;101993.27;;;34.02;24.01
42511;BME280;28141;51.120;17.114;2023-05-02T15:30:38;101995.77;;;33.93;24.14
42511;BME280;28141;51.120;17.114;2023-05-02T15:34:17;101991.22;;;33.87;23.97
42511;BME280;28141;51.120;17.114;2023-05-02T15:37:31;101997.63;;;33.78;23.92
42511;BME280;28141;51.120;17.114;2023-05-02T15:40:56;101997.27;;;33.69;23.90
42511;BME280;28141;51.120;17.114;2023-05-02T15:44:10;101993.27;;;33.60;24.21
42511;BME280;28141;51.120;17.114;2023-05-02T15:47:50;102002.21;;;33.52;24.20
42511;BME280;28141;51.120;17.114;2023-05-02T15:51:05;102010.27;;;33.43;24.48
42511;BME280;28141;51.120;17.114;2023-05-02T15:54:21;102015.59;;;33.40;24.46
42511;BME280;28141;51.120;17.114;2023-05-02T15:57:34;102020.02;;;33.30;23.84
42511;BME280;28141;51.120;17.114;2023-05-02T16:01:15;102021.86;;;33.20;24.46
42511;BME280;28141;51.120;17.114;2023-05-02T16:04:29;102023.73;;;33.09;24.13
42511;BME280;28141;51.120;17.114;2023-05-02T16:07:46;102030.98;;;33.05;24.49
42511;BME280;28141;51.120;17.114;2023-05-02T16:11:00;102030.35;;;32.98;24.76
42511;BME280;28141;51.120;17.114;2023-05-02T16:14:40;102040.93;;;32.91;24.89
42511;BME280;28141;51.120;17.114;2023-05-02T16:17:55;102034.69;;;32.84;24.37
42511;BME280;28141;51.120;17.114;2023-05-02T16:21:09;102033.72;;;32.73;25.23
42511;BME280;28141;51.120;17.114;2023-05-02T16:24:23;102040.34;;;32.67;25.95
42511;BME280;28141;51.120;17.114;2023-05-02T16:28:03;102042.52;;;32.60;25.35
42511;BME280;28141;51.120;17.114;2023-05-02T16:31:18;102041.54;;;32.49;25.89
42511;BME280;28141;51.120;17.114;2023-05-02T16:34:32;102047.62;;;32.41;25.37
42511;BME280;28141;51.120;17.114;2023-05-02T16:37:46;102049.75;;;32.34;25.57
42511;BME280;28141;51.120;17.114;2023-05-02T16:41:25;102054.66;;;32.22;25.82
42511;BME280;28141;51.120;17.114;2023-05-02T16:44:39;102050.55;;;32.13;26.07
42511;BME280;28141;51.120;17.114;2023-05-02T16:47:53;102054.30;;;32.02;26.24
42511;BME280;28141;51.120;17.114;2023-05-02T16:51:08;102057.30;;;31.95;25.86
42511;BME280;28141;51.120;17.114;2023-05-02T16:54:48;102060.99;;;31.79;26.02
42511;BME280;28141;51.120;17.114;2023-05-02T16:58:01;102066.15;;;31.70;26.14
42511;BME280;28141;51.120;17.114;2023-05-02T17:01:16;102072.66;;;31.59;26.29
42511;BME280;28141;51.120;17.114;2023-05-02T17:04:30;102070.47;;;31.44;26.62
42511;BME280;28141;51.120;17.114;2023-05-02T17:08:09;102078.34;;;31.31;26.56
42511;BME280;28141;51.120;17.114;2023-05-02T17:11:23;102076.95;;;31.16;26.44
42511;BME280;28141;51.120;17.114;2023-05-02T17:14:39;102087.21;;;31.11;27.07
42511;BME280;28141;51.120;17.114;2023-05-02T17:17:55;102085.90;;;31.02;26.79
42511;BME280;28141;51.120;17.114;2023-05-02T17:21:35;102092.63;;;30.89;27.00
42511;BME280;28141;51.120;17.114;2023-05-02T17:24:49;102093.04;;;30.81;26.83
42511;BME280;28141;51.120;17.114;2023-05-02T17:28:06;102094.38;;;30.78;27.49
42511;BME280;28141;51.120;17.114;2023-05-02T17:31:20;102100.38;;;30.70;27.54
42511;BME280;28141;51.120;17.114;2023-05-02T17:35:02;102105.48;;;30.62;27.25
42511;BME280;28141;51.120;17.114;2023-05-02T17:38:16;102102.83;;;30.55;27.09
42511;BME280;28141;51.120;17.114;2023-05-02T17:41:30;102106.60;;;30.49;27.27
42511;BME280;28141;51.120;17.114;2023-05-02T17:44:44;102114.01;;;30.43;28.34
42511;BME280;28141;51.120;17.114;2023-05-02T17:48:26;102123.40;;;30.37;27.55
42511;BME280;28141;51.120;17.114;2023-05-02T17:51:40;102121.55;;;30.31;27.85
42511;BME280;28141;51.120;17.114;2023-05-02T17:54:56;102126.44;;;30.24;27.65
42511;BME280;28141;51.120;17.114;2023-05-02T17:58:11;102129.60;;;30.16;27.96
42511;BME280;28141;51.120;17.114;2023-05-02T18:01:52;102135.05;;;30.11;27.84
42511;BME280;28141;51.120;17.114;2023-05-02T18:05:07;102136.28;;;30.03;27.63
42511;BME280;28141;51.120;17.114;2023-05-02T18:08:22;102150.72;;;30.00;28.55
42511;BME280;28141;51.120;17.114;2023-05-02T18:11:36;102148.88;;;29.94;27.97